Kalvesta, Kansas
Current Conditions -  °F | °C
As of 4:52 PM on Tuesday 27 Jan 2015 (Local Time) from KDDC Reporting Station
Clear Clear  
Wind Chill: 77°   Ceiling: Unl
Heat Index: 77°   Visibility: 10mi
Dew Point: 25°   Wind: 14mph
Humidity: 15%   Direction: 220°SW
Pressure: 30.01"   Gusts: NA
Location:  37.8692°N, 100.332°W
Report Text: KDDC 272252Z AUTO 22012KT 10SM CLR 25/M04 A3001 RMK AO2 SLP146 T02501039
Loading
Personal Weather Stations






























Interactive Weather Map New forecast layout! Learn more

10-Day Weather Forecast

Advertisements
Track Severe Weather on mobile